Time;durP1;ratioP1;P1;durP2;ratioP2;P2;SDS_P1;SDS_P2;PMS_P1;PMS_P2;Temp;Humidity;BMP_temperature;BMP_pressure;BME280_temperature;BME280_humidity;BME280_pressure;Samples;Min_cycle;Max_cycle;Signal;HPM_P1;HPM_P2
2022/04/29 00:00:39;;;;;;;17.15;12.68;;;6.30;99.90;;;;;;5124805;27;20121;-79
2022/04/29 00:03:10;;;;;;;13.43;12.02;;;6.20;99.90;;;;;;5104115;27;20043;-78
2022/04/29 00:05:37;;;;;;;16.20;12.68;;;6.30;99.90;;;;;;5091481;27;20059;-78
2022/04/29 00:08:05;;;;;;;21.88;14.32;;;6.20;99.90;;;;;;5125138;27;20097;-78
2022/04/29 00:10:31;;;;;;;16.73;14.20;;;6.30;99.90;;;;;;5125420;27;20047;-79
2022/04/29 00:12:59;;;;;;;14.93;12.73;;;6.30;99.90;;;;;;5122642;27;20488;-78
2022/04/29 00:15:25;;;;;;;18.83;13.70;;;6.30;99.90;;;;;;5125206;27;20054;-78
2022/04/29 00:17:51;;;;;;;19.13;15.45;;;6.30;99.90;;;;;;5126395;27;20043;-78
2022/04/29 00:20:17;;;;;;;16.10;13.00;;;6.30;99.90;;;;;;5106064;27;20055;-78
2022/04/29 00:22:44;;;;;;;20.45;14.48;;;6.30;99.90;;;;;;5106351;27;20059;-78
2022/04/29 00:25:11;;;;;;;19.17;14.57;;;6.20;99.90;;;;;;5123960;27;20038;-78
2022/04/29 00:27:38;;;;;;;15.20;13.65;;;6.20;99.90;;;;;;5141020;27;20055;-78
2022/04/29 00:30:05;;;;;;;22.52;13.43;;;6.10;99.90;;;;;;5111372;27;20470;-78
2022/04/29 00:32:31;;;;;;;14.38;12.15;;;6.10;99.90;;;;;;5129094;27;20430;-78
2022/04/29 00:34:56;;;;;;;16.10;13.93;;;6.10;99.90;;;;;;5109930;27;20082;-78
2022/04/29 00:37:22;;;;;;;14.93;13.02;;;6.10;99.90;;;;;;5111285;27;20157;-78
2022/04/29 00:39:48;;;;;;;18.23;13.77;;;6.00;99.90;;;;;;5111676;27;20078;-78
2022/04/29 00:42:15;;;;;;;17.40;12.90;;;6.00;99.90;;;;;;5127495;27;20181;-78
2022/04/29 00:44:42;;;;;;;18.08;14.10;;;6.00;99.90;;;;;;5111199;27;20483;-78
2022/04/29 00:47:11;;;;;;;13.98;12.55;;;6.00;99.90;;;;;;5108265;27;20043;-78
2022/04/29 00:49:37;;;;;;;15.90;13.50;;;5.90;99.90;;;;;;5112060;27;20054;-78
2022/04/29 00:52:07;;;;;;;21.30;15.07;;;5.90;99.90;;;;;;5108479;27;20050;-78
2022/04/29 00:54:36;;;;;;;17.77;12.50;;;5.80;99.90;;;;;;5141873;27;20043;-78
2022/04/29 00:57:06;;;;;;;22.13;15.02;;;5.80;99.90;;;;;;5127580;27;20039;-78
2022/04/29 00:59:35;;;;;;;;;;;5.70;99.90;;;;;;5112166;27;20759;-79
2022/04/29 01:02:03;;;;;;;20.45;15.43;;;5.70;99.90;;;;;;5127711;27;19962;-79
2022/04/29 01:04:48;;;;;;;18.02;15.00;;;5.60;99.90;;;;;;5127850;27;20035;-78
2022/04/29 01:07:14;;;;;;;15.77;12.25;;;5.60;99.90;;;;;;5127531;27;20046;-79
2022/04/29 01:09:40;;;;;;;18.38;13.77;;;5.60;99.90;;;;;;5074652;27;20126;-78
2022/04/29 01:12:07;;;;;;;16.67;14.40;;;5.50;99.90;;;;;;5110015;27;20460;-79
2022/04/29 01:14:34;;;;;;;15.80;12.50;;;5.50;99.90;;;;;;5092648;27;20050;-79
2022/04/29 01:16:59;;;;;;;20.25;13.85;;;5.50;99.90;;;;;;5110419;27;20051;-79
2022/04/29 01:19:30;;;;;;;16.77;14.45;;;5.50;99.90;;;;;;5117869;27;20095;-79
2022/04/29 01:21:59;;;;;;;;;;;5.30;99.90;;;;;;5147013;27;20397;-78
2022/04/29 01:24:25;;;;;;;14.88;12.38;;;5.20;99.90;;;;;;5125303;27;20471;-78
2022/04/29 01:26:51;;;;;;;17.58;14.25;;;5.20;99.90;;;;;;5082960;27;20063;-78
2022/04/29 01:29:20;;;;;;;18.85;14.23;;;5.20;99.90;;;;;;5081670;28;20051;-79
2022/04/29 01:31:48;;;;;;;17.98;14.00;;;5.20;99.90;;;;;;5093016;28;20538;-79
2022/04/29 01:34:13;;;;;;;14.75;13.15;;;5.10;99.90;;;;;;5097152;27;20114;-78
2022/04/29 01:36:39;;;;;;;16.13;14.27;;;5.10;99.90;;;;;;5074468;28;20150;-78
2022/04/29 01:39:24;;;;;;;16.50;13.25;;;5.10;99.90;;;;;;5074748;28;20079;-78
2022/04/29 01:41:49;;;;;;;19.40;15.18;;;5.10;99.90;;;;;;5100608;28;20120;-78
2022/04/29 01:44:15;;;;;;;18.30;15.20;;;5.10;99.90;;;;;;5079910;28;20051;-78
2022/04/29 01:46:43;;;;;;;22.80;16.85;;;5.00;99.90;;;;;;5075888;28;20036;-78
2022/04/29 01:49:09;;;;;;;18.15;15.02;;;4.80;99.90;;;;;;5059527;28;20582;-78
2022/04/29 01:51:35;;;;;;;19.15;14.93;;;4.80;99.90;;;;;;5049397;28;20048;-78
2022/04/29 01:54:09;;;;;;;18.70;15.00;;;4.70;99.90;;;;;;5078238;28;20057;-79
2022/04/29 01:56:35;;;;;;;25.13;17.23;;;4.70;99.90;;;;;;5093901;28;20051;-79
2022/04/29 01:59:05;;;;;;;22.60;16.67;;;4.70;99.90;;;;;;5053456;28;20065;-79
2022/04/29 02:01:31;;;;;;;25.80;17.27;;;4.70;99.90;;;;;;5072733;28;21817;-79
2022/04/29 02:04:00;;;;;;;23.38;16.75;;;4.70;99.90;;;;;;5098814;27;20389;-78
2022/04/29 02:06:26;;;;;;;17.30;13.77;;;4.70;99.90;;;;;;5079827;28;20057;-78
2022/04/29 02:08:53;;;;;;;17.65;13.18;;;4.70;99.90;;;;;;5099002;28;20040;-78
2022/04/29 02:11:22;;;;;;;16.05;12.98;;;4.70;99.90;;;;;;5102213;27;20101;-78
2022/04/29 02:13:49;;;;;;;25.50;18.38;;;4.70;99.90;;;;;;5080073;28;20088;-78
2022/04/29 02:16:15;;;;;;;23.83;17.83;;;4.70;99.90;;;;;;5078181;28;20493;-78
2022/04/29 02:18:41;;;;;;;16.98;14.63;;;4.70;99.90;;;;;;5074771;28;20048;-78
2022/04/29 02:21:07;;;;;;;20.50;16.63;;;4.70;99.90;;;;;;5074967;28;20123;-78
2022/04/29 02:23:33;;;;;;;22.38;15.70;;;4.70;99.90;;;;;;5097251;28;20098;-79
2022/04/29 02:26:00;;;;;;;19.70;14.63;;;4.70;99.90;;;;;;5093252;28;20123;-79
2022/04/29 02:28:27;;;;;;;21.25;15.23;;;4.80;99.90;;;;;;5069865;27;20577;-79
2022/04/29 02:30:55;;;;;;;17.20;15.30;;;4.70;99.90;;;;;;5130878;27;20066;-79
2022/04/29 02:33:21;;;;;;;18.85;14.93;;;4.70;99.90;;;;;;5112256;27;20879;-79
2022/04/29 02:35:47;;;;;;;19.58;15.73;;;4.70;99.90;;;;;;5112569;27;20044;-79
2022/04/29 02:38:12;;;;;;;16.75;14.32;;;4.70;99.90;;;;;;5110615;27;20130;-79
2022/04/29 02:40:39;;;;;;;16.90;13.48;;;4.60;99.90;;;;;;5125202;27;20462;-78
2022/04/29 02:43:05;;;;;;;21.10;17.10;;;4.60;99.90;;;;;;5124551;27;20058;-78
2022/04/29 02:45:32;;;;;;;19.42;16.02;;;4.60;99.90;;;;;;5129767;27;20039;-78
2022/04/29 02:47:58;;;;;;;16.65;14.75;;;4.60;99.90;;;;;;5128248;27;20122;-78
2022/04/29 02:50:25;;;;;;;20.65;15.90;;;4.70;99.90;;;;;;5092800;27;20092;-79
2022/04/29 02:52:51;;;;;;;16.60;13.02;;;4.70;99.90;;;;;;5096355;27;20055;-79
2022/04/29 02:55:17;;;;;;;18.23;14.52;;;4.70;99.90;;;;;;5129693;27;20047;-79
2022/04/29 02:57:43;;;;;;;15.68;13.57;;;4.70;99.90;;;;;;5113417;27;20209;-79
2022/04/29 03:00:10;;;;;;;17.17;14.80;;;4.80;99.90;;;;;;5110961;27;20357;-78
2022/04/29 03:02:36;;;;;;;18.20;13.73;;;4.70;99.90;;;;;;5113411;27;20759;-79
2022/04/29 03:05:06;;;;;;;16.98;13.15;;;4.80;99.90;;;;;;5113437;27;20108;-79
2022/04/29 03:07:38;;;;;;;16.92;15.15;;;4.70;99.90;;;;;;5096079;27;20039;-78
2022/04/29 03:10:04;;;;;;;22.88;15.43;;;4.70;99.90;;;;;;5112671;27;20042;-78
2022/04/29 03:12:30;;;;;;;15.63;14.02;;;4.70;99.90;;;;;;5129563;27;20031;-78
2022/04/29 03:15:15;;;;;;;15.90;14.30;;;4.60;99.90;;;;;;5112813;27;20055;-78
2022/04/29 03:20:26;;;;;;;16.67;13.77;;;4.70;99.90;;;;;;5126384;27;20115;-78
2022/04/29 03:22:52;;;;;;;19.17;16.05;;;4.60;99.90;;;;;;5113070;27;20489;-78
2022/04/29 03:25:18;;;;;;;18.85;15.73;;;4.60;99.90;;;;;;5111941;27;20088;-78
2022/04/29 03:27:44;;;;;;;20.80;17.23;;;4.60;99.90;;;;;;5094324;27;20062;-79
2022/04/29 03:30:11;;;;;;;19.52;15.15;;;4.50;99.90;;;;;;5093103;27;20039;-78
2022/04/29 03:32:36;;;;;;;18.95;16.08;;;4.50;99.90;;;;;;5112393;27;20181;-77
2022/04/29 03:35:03;;;;;;;23.85;16.23;;;4.50;99.90;;;;;;5094913;27;20139;-77
2022/04/29 03:37:29;;;;;;;18.00;14.65;;;4.50;99.90;;;;;;5110915;27;20359;-78
2022/04/29 03:39:54;;;;;;;17.73;14.18;;;4.40;99.90;;;;;;5128963;27;20062;-78
2022/04/29 03:42:21;;;;;;;15.63;13.88;;;4.40;99.90;;;;;;5125294;27;20035;-77
2022/04/29 03:44:46;;;;;;;17.10;13.50;;;4.40;99.90;;;;;;5109390;27;20128;-78
2022/04/29 03:47:12;;;;;;;16.40;14.57;;;4.40;99.90;;;;;;5108572;27;20075;-78
2022/04/29 03:49:38;;;;;;;14.93;13.27;;;4.30;99.90;;;;;;5126621;27;20054;-78
2022/04/29 03:52:05;;;;;;;23.27;16.08;;;4.30;99.90;;;;;;5089646;27;20518;-77
2022/04/29 03:54:32;;;;;;;18.67;15.05;;;4.30;99.90;;;;;;5123611;27;20132;-77
2022/04/29 03:56:59;;;;;;;19.17;14.18;;;4.30;99.90;;;;;;5093991;27;20043;-79
2022/04/29 03:59:25;;;;;;;19.45;15.90;;;4.30;99.90;;;;;;5109261;27;20121;-78
2022/04/29 04:01:51;;;;;;;20.05;16.45;;;4.30;99.90;;;;;;5107924;27;20203;-78
2022/04/29 04:04:17;;;;;;;25.20;17.70;;;4.30;99.90;;;;;;5091072;27;20043;-77
2022/04/29 04:06:49;;;;;;;27.52;19.42;;;4.20;99.90;;;;;;5121683;27;20049;-77
2022/04/29 04:09:20;;;;;;;23.45;16.98;;;4.20;99.90;;;;;;5109804;27;20051;-78
2022/04/29 04:11:46;;;;;;;18.45;15.75;;;4.20;99.90;;;;;;5109040;27;20068;-78
2022/04/29 04:14:12;;;;;;;19.73;16.02;;;4.10;99.90;;;;;;5107704;27;20489;-77
2022/04/29 04:16:38;;;;;;;32.75;19.77;;;4.10;99.90;;;;;;5107053;27;20050;-78
2022/04/29 04:19:05;;;;;;;19.45;16.52;;;4.00;99.90;;;;;;5107453;27;20043;-78
2022/04/29 04:21:31;;;;;;;17.77;14.88;;;4.00;99.90;;;;;;5090124;27;20077;-78
2022/04/29 04:23:57;;;;;;;16.60;14.48;;;4.10;99.90;;;;;;5108415;27;20076;-78
2022/04/29 04:26:23;;;;;;;21.05;17.05;;;4.10;99.90;;;;;;5070774;27;20481;-78
2022/04/29 04:28:49;;;;;;;20.42;16.30;;;4.10;99.90;;;;;;5111086;27;20043;-78
2022/04/29 04:31:15;;;;;;;23.65;18.77;;;4.10;99.90;;;;;;5076269;27;20038;-78
2022/04/29 04:33:41;;;;;;;23.40;18.13;;;4.10;99.90;;;;;;5092487;28;20051;-78
2022/04/29 04:36:09;;;;;;;25.17;18.45;;;4.20;99.90;;;;;;5052818;27;20039;-79
2022/04/29 04:38:37;;;;;;;21.80;18.27;;;4.20;99.90;;;;;;5085030;28;20074;-78
2022/04/29 04:41:03;;;;;;;21.75;17.80;;;4.10;99.90;;;;;;5098669;27;20046;-78
2022/04/29 04:43:29;;;;;;;19.67;16.23;;;4.20;99.90;;;;;;5093273;28;20048;-78
2022/04/29 04:45:56;;;;;;;25.42;19.20;;;4.20;99.90;;;;;;5116501;27;20174;-78
2022/04/29 04:48:25;;;;;;;26.23;21.55;;;4.20;99.90;;;;;;5078672;27;20071;-77
2022/04/29 04:50:50;;;;;;;27.27;21.00;;;4.30;99.90;;;;;;5085397;27;20035;-78
2022/04/29 04:53:16;;;;;;;26.23;19.73;;;4.30;99.90;;;;;;5076559;27;20565;-78
2022/04/29 04:55:42;;;;;;;34.08;22.45;;;4.40;99.90;;;;;;5079043;28;20405;-77
2022/04/29 04:58:09;;;;;;;21.38;16.85;;;4.50;99.90;;;;;;5071397;28;20051;-78
2022/04/29 05:00:36;;;;;;;21.27;17.58;;;4.50;99.90;;;;;;5090056;28;20044;-78
2022/04/29 05:03:05;;;;;;;29.58;21.23;;;4.60;99.90;;;;;;5106684;27;20047;-78
2022/04/29 05:05:32;;;;;;;22.88;18.55;;;4.70;99.90;;;;;;5088340;28;20348;-78
2022/04/29 05:07:58;;;;;;;19.77;16.90;;;4.80;99.90;;;;;;5080084;28;20052;-78
2022/04/29 05:10:25;;;;;;;20.38;18.20;;;4.90;99.90;;;;;;5077315;28;20112;-78
2022/04/29 05:12:50;;;;;;;20.00;17.50;;;5.00;99.90;;;;;;5109690;27;20074;-78
2022/04/29 05:15:16;;;;;;;19.40;16.48;;;5.10;99.90;;;;;;5076662;27;20549;-78
2022/04/29 05:17:43;;;;;;;20.42;17.10;;;5.20;99.90;;;;;;5098825;28;20051;-78
2022/04/29 05:20:11;;;;;;;21.85;17.75;;;5.30;99.90;;;;;;5102488;27;20185;-77
2022/04/29 05:22:37;;;;;;;26.42;17.02;;;5.40;99.90;;;;;;5090084;27;20578;-78
2022/04/29 05:25:05;;;;;;;21.38;16.20;;;5.50;99.90;;;;;;5094349;27;20741;-78
2022/04/29 05:27:31;;;;;;;21.65;15.55;;;5.60;99.90;;;;;;5098048;27;20136;-78
2022/04/29 05:29:57;;;;;;;19.58;15.50;;;5.70;99.90;;;;;;5095534;27;20506;-78
2022/04/29 05:32:25;;;;;;;21.13;14.88;;;5.80;99.90;;;;;;5065598;28;20047;-77
2022/04/29 05:34:51;;;;;;;20.83;15.50;;;5.90;99.90;;;;;;5108669;27;20201;-77
2022/04/29 05:37:18;;;;;;;19.92;15.18;;;6.00;99.90;;;;;;5081834;28;20043;-79
2022/04/29 05:42:31;;;;;;;19.67;15.13;;;6.10;99.90;;;;;;5091308;27;20126;-79
2022/04/29 05:44:59;;;;;;;17.70;15.25;;;6.10;99.90;;;;;;5113821;27;20059;-78
2022/04/29 05:47:25;;;;;;;16.27;13.65;;;6.20;99.90;;;;;;5071535;28;21516;-78
2022/04/29 05:49:51;;;;;;;21.40;14.75;;;6.20;99.90;;;;;;5099200;27;20105;-79
2022/04/29 05:52:17;;;;;;;17.90;13.93;;;6.30;99.90;;;;;;5056685;27;20043;-78
2022/04/29 05:54:43;;;;;;;17.50;14.43;;;6.30;99.90;;;;;;5099271;27;20095;-77
2022/04/29 05:57:08;;;;;;;17.02;13.50;;;6.20;99.90;;;;;;5083568;28;20044;-77
2022/04/29 05:59:34;;;;;;;16.70;14.43;;;6.30;99.90;;;;;;5100353;27;20092;-77
2022/04/29 06:02:00;;;;;;;17.77;14.93;;;6.30;99.90;;;;;;5066875;28;20048;-79
2022/04/29 06:04:26;;;;;;;15.65;12.75;;;6.40;99.90;;;;;;5064598;28;20176;-79
2022/04/29 06:06:52;;;;;;;15.95;13.43;;;6.50;99.90;;;;;;5070949;28;20376;-78
2022/04/29 06:09:18;;;;;;;16.27;13.80;;;6.50;99.90;;;;;;5082601;28;20116;-79
2022/04/29 06:11:45;;;;;;;16.98;14.02;;;6.60;99.90;;;;;;5073721;28;20105;-79
2022/04/29 06:14:11;;;;;;;18.50;13.35;;;6.70;99.90;;;;;;5081116;28;20044;-77
2022/04/29 06:16:36;;;;;;;16.92;13.75;;;6.80;99.90;;;;;;5059000;28;20040;-79
2022/04/29 06:19:03;;;;;;;17.95;13.73;;;6.80;99.90;;;;;;5058236;28;20112;-80
2022/04/29 06:21:28;;;;;;;14.90;12.85;;;6.90;99.90;;;;;;5072646;28;20048;-79
2022/04/29 06:23:54;;;;;;;16.88;13.35;;;6.90;99.90;;;;;;5091449;28;20105;-79
2022/04/29 06:26:20;;;;;;;19.35;13.30;;;7.00;99.90;;;;;;5069515;28;20055;-79
2022/04/29 06:28:46;;;;;;;16.38;12.50;;;7.00;99.90;;;;;;5105865;27;20051;-79
2022/04/29 06:31:13;;;;;;;16.15;13.32;;;7.10;99.90;;;;;;5094825;28;20048;-79
2022/04/29 06:33:38;;;;;;;14.90;10.93;;;7.20;99.90;;;;;;5083821;27;20104;-79
2022/04/29 06:36:06;;;;;;;16.98;13.00;;;7.20;99.90;;;;;;5103860;27;20050;-79
2022/04/29 06:38:35;;;;;;;15.98;12.52;;;7.30;99.90;;;;;;5112622;27;20044;-80
2022/04/29 06:41:03;;;;;;;15.00;13.10;;;7.30;99.90;;;;;;5062250;27;20059;-79
2022/04/29 06:43:31;;;;;;;15.50;11.63;;;7.40;99.90;;;;;;5109946;27;20039;-79
2022/04/29 06:46:00;;;;;;;16.42;11.50;;;7.40;99.90;;;;;;5089143;27;20052;-79
2022/04/29 06:48:27;;;;;;;12.98;10.73;;;7.50;99.90;;;;;;5087146;27;20536;-80
2022/04/29 06:50:52;;;;;;;12.40;10.02;;;7.60;99.90;;;;;;5104624;27;20700;-79
2022/04/29 06:53:18;;;;;;;12.15;9.43;;;7.70;99.90;;;;;;5091317;27;20047;-79
2022/04/29 06:55:44;;;;;;;14.73;9.73;;;7.80;99.90;;;;;;5086702;28;20043;-79
2022/04/29 06:58:10;;;;;;;12.75;10.00;;;7.90;99.90;;;;;;5079894;28;20122;-79
2022/04/29 07:00:37;;;;;;;12.77;8.52;;;7.90;99.90;;;;;;5123974;28;20059;-74
2022/04/29 07:03:03;;;;;;;12.23;8.25;;;8.00;99.90;;;;;;5085789;28;20516;-80
2022/04/29 07:05:31;;;;;;;12.15;7.80;;;8.10;99.90;;;;;;5107038;28;20036;-81
2022/04/29 07:07:57;;;;;;;10.82;7.05;;;8.20;99.90;;;;;;5102867;28;20491;-81
2022/04/29 07:10:23;;;;;;;10.35;6.85;;;8.30;99.90;;;;;;5096958;28;20039;-81
2022/04/29 07:12:49;;;;;;;9.23;7.50;;;8.40;99.90;;;;;;5125376;28;20519;-79
2022/04/29 07:15:16;;;;;;;11.98;6.93;;;8.50;99.90;;;;;;5115558;27;20043;-77
2022/04/29 07:17:43;;;;;;;10.00;6.90;;;8.50;99.90;;;;;;5112507;27;20541;-80
2022/04/29 07:20:11;;;;;;;11.02;7.15;;;8.50;99.90;;;;;;5117801;27;20055;-80
2022/04/29 07:22:38;;;;;;;12.13;6.65;;;8.50;99.90;;;;;;5108070;28;20154;-80
2022/04/29 07:25:12;;;;;;;9.48;6.95;;;8.60;99.90;;;;;;5072545;28;20486;-79
2022/04/29 07:27:39;;;;;;;12.90;6.05;;;8.60;99.90;;;;;;5119941;27;20058;-77
2022/04/29 07:30:10;;;;;;;8.57;5.03;;;8.70;99.90;;;;;;5127878;27;20134;-77
2022/04/29 07:32:36;;;;;;;8.00;5.10;;;8.70;99.90;;;;;;5110459;27;20059;-80
2022/04/29 07:43:19;;;;;;;6.95;4.97;;;9.00;99.90;;;;;;5107245;27;20601;-78
2022/04/29 07:45:45;;;;;;;8.20;4.45;;;9.00;99.90;;;;;;5107371;27;20131;-77
2022/04/29 07:48:11;;;;;;;8.10;3.97;;;9.00;99.90;;;;;;5094994;27;20087;-79
2022/04/29 07:50:38;;;;;;;9.63;4.32;;;9.10;99.90;;;;;;5085002;27;20374;-80
2022/04/29 07:53:04;;;;;;;8.93;4.50;;;9.20;99.90;;;;;;5111371;27;20054;-78
2022/04/29 07:55:39;;;;;;;9.65;4.10;;;9.20;99.90;;;;;;5113958;27;20061;-79
2022/04/29 07:58:09;;;;;;;6.55;4.47;;;9.30;99.90;;;;;;5077284;27;20151;-79
2022/04/29 08:00:38;;;;;;;7.40;4.88;;;9.40;99.90;;;;;;5110663;27;20043;-78
2022/04/29 08:03:05;;;;;;;9.13;5.20;;;9.40;99.90;;;;;;5080951;27;20355;-79
2022/04/29 08:05:31;;;;;;;6.22;4.40;;;9.40;99.90;;;;;;5112689;27;20047;-76
2022/04/29 08:07:59;;;;;;;9.30;4.85;;;9.30;99.90;;;;;;5096625;27;20126;-77
2022/04/29 08:10:30;;;;;;;8.07;4.82;;;9.40;99.90;;;;;;5116590;27;20047;-78
2022/04/29 08:12:57;;;;;;;;;;;9.50;99.90;;;;;;5078648;27;20100;-75
2022/04/29 08:15:28;;;;;;;7.32;4.57;;;9.60;99.90;;;;;;5119630;27;20434;-78
2022/04/29 08:17:54;;;;;;;;;;;9.70;99.90;;;;;;5113951;27;20494;-77
2022/04/29 08:20:20;;;;;;;8.10;3.70;;;9.90;99.90;;;;;;5112165;27;19930;-75
2022/04/29 08:22:46;;;;;;;8.77;4.07;;;10.10;99.90;;;;;;5114039;27;20122;-77
2022/04/29 08:25:12;;;;;;;9.52;4.53;;;10.20;99.90;;;;;;5080099;27;20148;-75
2022/04/29 08:27:38;;;;;;;7.18;4.25;;;10.20;99.90;;;;;;5093650;27;20147;-77
2022/04/29 08:30:07;;;;;;;8.00;4.22;;;10.30;99.90;;;;;;5114035;27;20043;-77
2022/04/29 08:32:37;;;;;;;6.18;4.40;;;10.30;99.90;;;;;;5111275;27;20039;-78
2022/04/29 08:35:03;;;;;;;;;;;10.40;99.90;;;;;;5112238;27;20126;-80
2022/04/29 08:37:29;;;;;;;6.88;4.70;;;10.50;99.90;;;;;;5116083;27;20632;-81
2022/04/29 08:39:55;;;;;;;8.93;4.97;;;10.60;99.90;;;;;;5118141;27;20043;-77
2022/04/29 08:42:26;;;;;;;6.53;3.92;;;10.80;99.90;;;;;;5081242;28;20687;-79
2022/04/29 08:44:53;;;;;;;8.35;4.22;;;10.80;99.90;;;;;;5115107;27;20094;-79
2022/04/29 08:47:18;;;;;;;7.75;4.30;;;10.80;99.90;;;;;;5090498;27;20485;-78
2022/04/29 08:49:46;;;;;;;7.03;3.90;;;10.80;99.90;;;;;;5086625;28;20048;-80
2022/04/29 08:52:14;;;;;;;6.07;4.18;;;10.70;99.90;;;;;;5086327;28;20065;-80
2022/04/29 09:00:23;;;;;;;8.63;3.80;;;10.50;99.90;;;;;;5120543;27;20058;-82
2022/04/29 09:02:49;;;;;;;5.35;3.72;;;10.60;99.90;;;;;;5099586;27;20504;-81
2022/04/29 09:05:15;;;;;;;6.65;3.83;;;10.70;99.90;;;;;;5106541;27;20051;-81
2022/04/29 09:08:03;;;;;;;7.35;3.67;;;10.70;99.90;;;;;;5112363;27;20074;-79
2022/04/29 09:10:30;;;;;;;8.55;4.28;;;10.80;99.90;;;;;;5111757;27;20043;-81
2022/04/29 09:13:13;;;;;;;6.13;3.25;;;10.80;99.90;;;;;;5104129;27;20090;-80
2022/04/29 09:16:00;;;;;;;5.95;3.08;;;10.90;99.90;;;;;;5105249;28;20105;-80
2022/04/29 09:18:39;;;;;;;4.18;3.05;;;10.90;99.90;;;;;;5087648;27;20063;-81
2022/04/29 09:21:13;;;;;;;8.05;3.53;;;10.90;99.90;;;;;;5106202;27;20620;-81
2022/04/29 09:23:57;;;;;;;7.22;3.42;;;10.90;99.90;;;;;;5088051;28;20047;-82
2022/04/29 09:26:27;;;;;;;6.40;3.72;;;10.90;99.90;;;;;;5098776;27;20558;-82
2022/04/29 09:28:54;;;;;;;5.97;3.20;;;10.90;99.90;;;;;;5116916;27;20564;-80
2022/04/29 09:31:20;;;;;;;5.90;3.30;;;10.80;99.90;;;;;;5110815;27;20094;-82
2022/04/29 09:33:59;;;;;;;7.97;3.10;;;10.80;99.90;;;;;;5095928;27;20062;-81
2022/04/29 09:36:26;;;;;;;5.93;3.40;;;10.80;99.90;;;;;;5109873;27;20454;-81
2022/04/29 09:41:55;;;;;;;6.35;3.40;;;10.80;99.90;;;;;;5113539;27;20119;-79
2022/04/29 09:44:35;;;;;;;7.47;3.10;;;10.90;99.90;;;;;;5105501;27;20620;-80
2022/04/29 09:47:23;;;;;;;9.65;3.50;;;11.00;99.90;;;;;;5103925;27;20104;-79
2022/04/29 09:49:54;;;;;;;5.55;3.60;;;10.90;99.90;;;;;;5111956;27;20058;-81
2022/04/29 09:52:20;;;;;;;6.03;3.50;;;10.90;99.90;;;;;;5112435;27;20494;-82
2022/04/29 09:54:47;;;;;;;7.38;3.30;;;11.00;99.90;;;;;;5084038;27;20047;-81
2022/04/29 09:57:17;;;;;;;7.32;2.97;;;11.10;99.90;;;;;;5101263;27;20051;-81
2022/04/29 09:59:54;;;;;;;7.60;3.42;;;11.10;99.90;;;;;;5125931;27;20043;-80
2022/04/29 10:02:22;;;;;;;7.38;3.20;;;11.20;99.90;;;;;;5114282;27;20534;-82
2022/04/29 10:04:51;;;;;;;6.72;3.40;;;11.10;99.90;;;;;;5104882;28;20548;-82
2022/04/29 10:07:18;;;;;;;6.47;2.92;;;11.10;99.90;;;;;;5089491;27;20115;-81
2022/04/29 10:09:58;;;;;;;7.40;2.78;;;11.10;99.90;;;;;;5094307;28;20512;-81
2022/04/29 10:12:25;;;;;;;7.45;2.80;;;11.10;99.90;;;;;;5102837;28;20044;-81
2022/04/29 10:14:58;;;;;;;7.38;2.88;;;11.00;99.90;;;;;;5115544;27;20065;-82
2022/04/29 10:23:08;;;;;;;7.05;2.70;;;11.10;99.90;;;;;;5106042;27;20063;-79
2022/04/29 10:25:35;;;;;;;6.65;2.92;;;11.10;99.90;;;;;;5123765;27;20047;-78
2022/04/29 10:28:03;;;;;;;6.72;3.00;;;11.00;99.90;;;;;;5096412;28;20073;-79
2022/04/29 10:30:32;;;;;;;5.63;2.70;;;11.00;99.90;;;;;;5085782;28;20039;-81
2022/04/29 10:32:58;;;;;;;6.78;2.70;;;10.90;99.90;;;;;;5101240;28;20137;-77
2022/04/29 10:35:39;;;;;;;5.35;2.92;;;10.90;99.90;;;;;;5123533;28;20078;-81
2022/04/29 10:38:16;;;;;;;5.10;2.70;;;10.90;99.90;;;;;;5113286;28;20058;-79
2022/04/29 10:40:42;;;;;;;6.38;2.63;;;10.80;99.90;;;;;;5114090;28;20532;-78
2022/04/29 10:43:09;;;;;;;6.88;3.05;;;10.80;99.90;;;;;;5106601;28;20051;-81
2022/04/29 10:45:55;;;;;;;8.63;3.47;;;10.90;99.90;;;;;;5070944;28;20508;-80
2022/04/29 10:48:39;;;;;;;6.93;2.72;;;10.90;99.90;;;;;;5121752;28;20075;-78
2022/04/29 10:51:09;;;;;;;5.93;2.85;;;10.80;99.90;;;;;;5106650;27;20047;-83
2022/04/29 10:53:38;;;;;;;7.03;3.28;;;10.80;99.90;;;;;;5105142;27;20051;-83
2022/04/29 10:56:31;;;;;;;5.07;3.47;;;10.80;99.90;;;;;;5111178;27;20058;-81
2022/04/29 10:59:04;;;;;;;6.88;3.47;;;11.00;99.90;;;;;;5096337;28;20736;-81
2022/04/29 11:01:33;;;;;;;6.65;3.50;;;11.00;99.90;;;;;;5110823;27;20127;-81
2022/04/29 11:04:00;;;;;;;5.82;3.65;;;11.10;99.90;;;;;;5081813;27;20035;-82
2022/04/29 11:06:37;;;;;;;7.40;3.83;;;11.10;99.90;;;;;;5101682;27;20039;-79
2022/04/29 11:09:26;;;;;;;6.22;3.70;;;11.10;99.90;;;;;;5115849;27;20072;-80
2022/04/29 11:11:57;;;;;;;5.90;4.05;;;11.10;99.90;;;;;;5112721;27;20323;-81
2022/04/29 11:14:23;;;;;;;5.22;3.45;;;11.10;99.90;;;;;;5120488;27;20099;-79
2022/04/29 11:16:52;;;;;;;7.35;3.95;;;11.10;99.90;;;;;;5094151;27;20572;-79
2022/04/29 11:19:35;;;;;;;7.20;4.05;;;11.10;99.90;;;;;;5103691;28;20554;-81
2022/04/29 11:24:50;;;;;;;8.38;4.40;;;11.20;99.90;;;;;;5116312;27;20059;-77
2022/04/29 11:27:37;;;;;;;6.95;3.90;;;11.20;99.90;;;;;;5103556;28;20118;-79
2022/04/29 11:30:04;;;;;;;6.80;4.18;;;11.30;99.90;;;;;;5099708;28;20282;-79
2022/04/29 11:32:31;;;;;;;8.60;4.47;;;11.30;99.90;;;;;;5067665;28;20048;-82
2022/04/29 11:35:00;;;;;;;7.90;4.15;;;11.30;99.90;;;;;;5082829;28;20489;-80
2022/04/29 11:37:28;;;;;;;7.03;4.63;;;11.30;99.90;;;;;;5067821;28;20134;-80
2022/04/29 11:40:02;;;;;;;5.75;4.53;;;11.40;99.90;;;;;;5085340;28;20114;-78
2022/04/29 11:42:28;;;;;;;8.15;5.00;;;11.50;99.90;;;;;;5097805;28;20334;-79
2022/04/29 11:44:55;;;;;;;9.18;5.20;;;11.50;99.90;;;;;;5107139;28;20596;-79
2022/04/29 11:47:25;;;;;;;6.80;5.10;;;11.50;99.90;;;;;;5089482;28;20502;-76
2022/04/29 11:49:52;;;;;;;6.65;4.75;;;11.50;99.90;;;;;;5106769;28;20053;-79
2022/04/29 11:52:21;;;;;;;7.35;4.93;;;11.60;99.90;;;;;;5088290;28;20516;-79
2022/04/29 11:54:50;;;;;;;7.32;4.47;;;11.60;99.90;;;;;;5102482;28;20095;-82
2022/04/29 11:57:17;;;;;;;9.53;4.70;;;11.60;99.90;;;;;;5088075;28;20055;-75
2022/04/29 11:59:45;;;;;;;7.20;4.53;;;11.70;99.90;;;;;;5101073;28;20414;-78
2022/04/29 12:02:12;;;;;;;8.50;5.00;;;11.60;99.90;;;;;;5065921;28;20478;-74
2022/04/29 12:05:01;;;;;;;6.18;4.68;;;11.70;99.90;;;;;;5085156;28;20135;-76
2022/04/29 12:07:29;;;;;;;6.82;5.07;;;11.70;99.90;;;;;;5099914;28;20048;-77
2022/04/29 12:09:55;;;;;;;10.30;5.40;;;11.80;99.90;;;;;;5089751;28;20035;-77
2022/04/29 12:12:34;;;;;;;6.97;5.22;;;11.80;99.90;;;;;;5079967;28;20494;-76
2022/04/29 12:15:00;;;;;;;7.97;6.90;;;11.80;99.90;;;;;;5085379;28;20124;-76
2022/04/29 12:17:42;;;;;;;7.47;5.22;;;11.80;99.90;;;;;;5064657;28;20056;-77
2022/04/29 12:20:20;;;;;;;9.00;6.03;;;11.70;99.90;;;;;;5088093;28;20131;-76
2022/04/29 12:22:50;;;;;;;7.60;5.00;;;11.70;99.90;;;;;;5107051;28;20074;-76
2022/04/29 12:25:37;;;;;;;7.35;5.38;;;11.50;99.90;;;;;;5104056;28;20050;-76
2022/04/29 12:28:18;;;;;;;11.20;5.15;;;11.40;99.90;;;;;;5108987;27;20054;-77
2022/04/29 12:37:04;;;;;;;5.80;4.40;;;11.60;99.90;;;;;;5113935;27;20097;-80
2022/04/29 12:39:43;;;;;;;9.27;5.50;;;11.70;99.90;;;;;;5109931;27;20089;-80
2022/04/29 12:42:11;;;;;;;6.50;4.97;;;11.80;99.90;;;;;;5123649;27;20091;-80
2022/04/29 12:47:43;;;;;;;8.70;5.20;;;11.80;99.90;;;;;;5114801;27;20050;-79
2022/04/29 12:50:28;;;;;;;7.13;5.22;;;11.80;99.90;;;;;;5092756;27;20481;-80
2022/04/29 12:53:00;;;;;;;8.55;4.82;;;11.70;99.10;;;;;;5119289;27;20126;-78
2022/04/29 12:55:27;;;;;;;5.93;4.93;;;11.70;99.90;;;;;;5119992;27;20489;-80
2022/04/29 12:58:01;;;;;;;7.57;5.03;;;11.60;99.90;;;;;;5091899;27;20062;-83
2022/04/29 13:00:27;;;;;;;7.93;4.63;;;11.60;99.90;;;;;;5104505;27;20187;-81
2022/04/29 13:03:16;;;;;;;6.25;4.25;;;11.60;99.80;;;;;;5127076;27;20089;-82
2022/04/29 13:05:43;;;;;;;8.50;4.50;;;11.70;99.60;;;;;;5088993;27;20288;-82
2022/04/29 13:08:09;;;;;;;6.35;4.72;;;11.80;99.90;;;;;;5125552;27;20539;-83
2022/04/29 13:10:53;;;;;;;6.60;4.78;;;12.00;99.90;;;;;;5086975;27;20583;-84
2022/04/29 13:13:21;;;;;;;6.85;5.10;;;12.20;97.80;;;;;;5117078;27;20082;-83
2022/04/29 13:15:51;;;;;;;5.40;4.50;;;12.40;97.20;;;;;;5133351;27;20179;-83
2022/04/29 13:18:18;;;;;;;8.25;4.53;;;12.50;97.20;;;;;;5104260;27;20045;-82
2022/04/29 13:20:45;;;;;;;8.57;4.22;;;12.60;95.90;;;;;;5098137;27;20050;-83
2022/04/29 13:23:11;;;;;;;9.27;4.90;;;12.60;96.40;;;;;;5104784;27;20457;-82
2022/04/29 13:25:38;;;;;;;7.13;4.88;;;12.70;96.30;;;;;;5083791;27;20088;-80
2022/04/29 13:28:06;;;;;;;6.60;4.50;;;12.80;95.40;;;;;;5097505;27;20275;-84
2022/04/29 13:30:34;;;;;;;5.60;4.57;;;12.80;94.40;;;;;;5097787;27;20062;-80